createdAt,value
2023-05-03T00:01:31.677Z,7.30
2023-05-03T00:03:59.238Z,7.31
2023-05-03T00:06:26.910Z,7.34
2023-05-03T00:08:54.585Z,7.28
2023-05-03T00:11:22.188Z,7.16
2023-05-03T00:13:51.193Z,7.16
2023-05-03T00:16:19.723Z,7.21
2023-05-03T00:18:49.078Z,7.23
2023-05-03T00:21:17.382Z,7.24
2023-05-03T00:23:45.033Z,7.15
2023-05-03T00:26:12.693Z,7.08
2023-05-03T00:28:40.339Z,7.03
2023-05-03T00:31:10.256Z,7.04
2023-05-03T00:33:37.894Z,7.03
2023-05-03T00:36:10.032Z,7.07
2023-05-03T00:38:37.683Z,7.10
2023-05-03T00:41:05.815Z,7.09
2023-05-03T00:43:33.967Z,7.12
2023-05-03T00:46:12.936Z,7.14
2023-05-03T00:48:44.680Z,7.00
2023-05-03T00:51:14.368Z,6.94
2023-05-03T00:53:42.438Z,7.02
2023-05-03T00:56:11.249Z,7.07
2023-05-03T00:58:40.639Z,7.12
2023-05-03T01:01:08.972Z,7.13
2023-05-03T01:03:41.251Z,7.10
2023-05-03T01:06:15.011Z,7.12
2023-05-03T01:08:47.006Z,7.13
2023-05-03T01:11:17.653Z,7.11
2023-05-03T01:13:53.803Z,7.11
2023-05-03T01:16:27.649Z,7.09
2023-05-03T01:18:58.011Z,7.03
2023-05-03T01:21:27.524Z,6.96
2023-05-03T01:23:58.513Z,6.87
2023-05-03T01:26:28.645Z,6.82
2023-05-03T01:28:56.848Z,6.79
2023-05-03T01:31:30.097Z,6.73
2023-05-03T01:34:17.565Z,6.61
2023-05-03T01:36:45.871Z,6.58
2023-05-03T01:39:17.942Z,6.58
2023-05-03T01:41:46.996Z,6.59
2023-05-03T01:44:15.027Z,6.63
2023-05-03T01:46:44.919Z,6.65
2023-05-03T01:49:12.937Z,6.70
2023-05-03T01:51:40.765Z,6.74
2023-05-03T01:54:08.575Z,6.74
2023-05-03T01:56:36.966Z,6.56
2023-05-03T01:59:06.195Z,6.53
2023-05-03T02:01:33.952Z,6.59
2023-05-03T02:04:01.758Z,6.67
2023-05-03T02:06:29.490Z,6.73
2023-05-03T02:08:57.144Z,6.72
2023-05-03T02:11:24.864Z,6.66
2023-05-03T02:13:52.491Z,6.65
2023-05-03T02:16:21.567Z,6.66
2023-05-03T02:18:49.234Z,6.66
2023-05-03T02:21:16.838Z,6.56
2023-05-03T02:23:44.441Z,6.55
2023-05-03T02:26:12.091Z,6.43
2023-05-03T02:28:39.712Z,6.44
2023-05-03T02:31:07.568Z,6.50
2023-05-03T02:33:36.621Z,6.54
2023-05-03T02:36:04.522Z,6.48
2023-05-03T02:38:32.240Z,6.43
2023-05-03T02:41:00.060Z,6.48
2023-05-03T02:43:27.716Z,6.48
2023-05-03T02:45:55.412Z,6.51
2023-05-03T02:48:23.028Z,6.51
2023-05-03T02:50:52.171Z,6.47
2023-05-03T02:53:19.754Z,6.49
2023-05-03T02:55:47.528Z,6.44
2023-05-03T02:58:15.163Z,6.47
2023-05-03T03:00:42.856Z,6.49
2023-05-03T03:03:10.496Z,6.53
2023-05-03T03:05:38.188Z,6.56
2023-05-03T03:08:07.331Z,6.59
2023-05-03T03:10:34.947Z,6.61
2023-05-03T03:13:03.033Z,6.64
2023-05-03T03:15:30.682Z,6.60
2023-05-03T03:17:58.343Z,6.57
2023-05-03T03:20:26.035Z,6.55
2023-05-03T03:22:53.644Z,6.60
2023-05-03T03:25:22.801Z,6.66
2023-05-03T03:27:50.408Z,6.65
2023-05-03T03:30:18.022Z,6.63
2023-05-03T03:32:45.655Z,6.67
2023-05-03T03:35:13.382Z,6.57
2023-05-03T03:37:41.069Z,6.55
2023-05-03T03:40:10.659Z,6.58
2023-05-03T03:42:40.156Z,6.61
2023-05-03T03:45:08.669Z,6.66
2023-05-03T03:47:36.269Z,6.68
2023-05-03T03:50:04.155Z,6.62
2023-05-03T03:52:32.055Z,6.59
2023-05-03T03:54:59.707Z,6.60
2023-05-03T03:57:30.154Z,6.59
2023-05-03T03:59:59.726Z,6.59
2023-05-03T04:02:28.070Z,6.57
2023-05-03T04:04:55.747Z,6.56
2023-05-03T04:07:23.369Z,6.58
2023-05-03T04:09:51.017Z,6.63
2023-05-03T04:12:18.598Z,6.65
2023-05-03T04:14:47.032Z,6.67
2023-05-03T04:17:16.021Z,6.61
2023-05-03T04:19:43.758Z,6.62
2023-05-03T04:22:11.402Z,6.63
2023-05-03T04:24:39.716Z,6.58
2023-05-03T04:27:08.587Z,6.59
2023-05-03T04:29:38.513Z,6.61
2023-05-03T04:32:06.760Z,6.66
2023-05-03T04:34:35.964Z,6.70
2023-05-03T04:37:05.098Z,6.76
2023-05-03T04:39:32.861Z,6.70
2023-05-03T04:42:01.349Z,6.64
2023-05-03T04:44:29.325Z,6.65
2023-05-03T04:46:56.949Z,6.69
2023-05-03T04:49:24.546Z,6.66
2023-05-03T04:51:54.544Z,6.70
2023-05-03T04:54:23.354Z,6.63
2023-05-03T04:56:51.641Z,6.64
2023-05-03T04:59:19.239Z,6.71
2023-05-03T05:01:47.158Z,6.73
2023-05-03T05:04:14.976Z,6.76
2023-05-03T05:06:42.683Z,6.70
2023-05-03T05:09:23.697Z,6.69
2023-05-03T05:11:51.472Z,6.70
2023-05-03T05:14:19.425Z,6.66
2023-05-03T05:16:47.191Z,6.36
2023-05-03T05:19:14.955Z,6.28
2023-05-03T05:21:42.557Z,6.37
2023-05-03T05:24:11.521Z,6.52
2023-05-03T05:26:39.474Z,6.53
2023-05-03T05:29:07.127Z,6.40
2023-05-03T05:31:35.213Z,6.42
2023-05-03T05:34:03.213Z,6.46
2023-05-03T05:36:31.631Z,6.48
2023-05-03T05:38:59.373Z,6.36
2023-05-03T05:41:28.575Z,6.37
2023-05-03T05:43:56.205Z,6.43
2023-05-03T05:46:23.996Z,6.49
2023-05-03T05:48:52.427Z,6.64
2023-05-03T05:51:20.297Z,6.79
2023-05-03T05:53:47.861Z,6.80
2023-05-03T05:56:15.495Z,6.90
2023-05-03T05:58:44.444Z,7.00
2023-05-03T06:01:12.736Z,7.14
2023-05-03T06:03:40.345Z,7.23
2023-05-03T06:06:08.519Z,7.24
2023-05-03T06:08:36.192Z,7.29
2023-05-03T06:11:03.755Z,7.23
2023-05-03T06:13:33.214Z,7.23
2023-05-03T06:16:02.571Z,7.33
2023-05-03T06:18:30.163Z,7.37
2023-05-03T06:20:57.885Z,7.20
2023-05-03T06:23:27.789Z,7.18
2023-05-03T06:25:55.459Z,7.31
2023-05-03T06:28:23.057Z,7.27
2023-05-03T06:30:50.946Z,7.34
2023-05-03T06:33:20.040Z,7.30
2023-05-03T06:35:48.172Z,7.47
2023-05-03T06:38:15.832Z,7.67
2023-05-03T06:40:43.482Z,7.73
2023-05-03T06:43:11.119Z,7.74
2023-05-03T06:45:40.168Z,7.72
2023-05-03T06:48:07.909Z,7.69
2023-05-03T06:50:37.103Z,7.74
2023-05-03T06:53:04.733Z,7.79
2023-05-03T06:55:33.520Z,7.89
2023-05-03T06:58:01.491Z,7.81
2023-05-03T07:00:29.843Z,7.74
2023-05-03T07:02:58.264Z,7.83
2023-05-03T07:05:26.695Z,7.66
2023-05-03T07:07:55.696Z,7.75
2023-05-03T07:10:23.329Z,7.91
2023-05-03T07:12:51.385Z,7.81
2023-05-03T07:15:18.992Z,7.80
2023-05-03T07:17:46.671Z,7.95
2023-05-03T07:20:14.333Z,7.96
2023-05-03T07:22:42.119Z,7.91
2023-05-03T07:25:12.433Z,8.00
2023-05-03T07:27:40.274Z,8.04
2023-05-03T07:30:09.619Z,8.20
2023-05-03T07:32:37.420Z,8.19
2023-05-03T07:35:05.661Z,8.23
2023-05-03T07:37:33.294Z,8.36
2023-05-03T07:40:01.039Z,8.35
2023-05-03T07:42:30.117Z,8.31
2023-05-03T07:44:57.879Z,8.35
2023-05-03T07:47:26.378Z,8.42
2023-05-03T07:49:54.104Z,8.57
2023-05-03T07:52:21.855Z,8.64
2023-05-03T07:54:49.510Z,8.71
2023-05-03T07:57:17.622Z,8.67
2023-05-03T07:59:46.616Z,8.61
2023-05-03T08:02:14.316Z,8.69
2023-05-03T08:04:42.196Z,8.76
2023-05-03T08:07:09.986Z,8.80
2023-05-03T08:09:37.636Z,8.80
2023-05-03T08:12:05.664Z,8.89
2023-05-03T08:14:33.831Z,8.95
2023-05-03T08:17:04.687Z,8.83
2023-05-03T08:19:32.299Z,8.99
2023-05-03T08:21:59.914Z,9.10
2023-05-03T08:24:27.590Z,9.21
2023-05-03T08:26:55.353Z,9.28
2023-05-03T08:29:22.963Z,9.37
2023-05-03T08:31:50.543Z,9.47
2023-05-03T08:34:19.582Z,9.52
2023-05-03T08:36:47.231Z,9.57
2023-05-03T08:39:15.316Z,9.63
2023-05-03T08:41:43.010Z,9.58
2023-05-03T08:44:13.405Z,9.68
2023-05-03T08:46:44.181Z,9.75
2023-05-03T08:49:13.745Z,9.83
2023-05-03T08:51:43.079Z,9.93
2023-05-03T08:54:10.739Z,10.07
2023-05-03T08:56:41.872Z,10.26
2023-05-03T08:59:09.850Z,10.43
2023-05-03T09:01:37.992Z,10.58
2023-05-03T09:04:06.089Z,10.53
2023-05-03T09:06:34.285Z,10.72
2023-05-03T09:09:05.326Z,10.84
2023-05-03T09:11:34.193Z,11.04
2023-05-03T09:14:10.172Z,10.66
2023-05-03T09:16:38.627Z,10.83
2023-05-03T09:19:09.403Z,10.89
2023-05-03T09:21:37.312Z,11.07
2023-05-03T09:24:14.734Z,11.20
2023-05-03T09:26:42.471Z,11.44
2023-05-03T09:29:10.557Z,11.25
2023-05-03T09:31:38.772Z,11.70
2023-05-03T09:34:24.235Z,12.21
2023-05-03T09:36:51.836Z,12.66
2023-05-03T09:39:20.864Z,13.14
2023-05-03T09:41:48.515Z,13.28
2023-05-03T09:44:18.329Z,13.36
2023-05-03T09:47:04.484Z,13.60
2023-05-03T09:49:32.805Z,14.06
2023-05-03T09:52:01.245Z,14.11
2023-05-03T09:54:31.949Z,14.12
2023-05-03T09:57:00.655Z,14.10
2023-05-03T09:59:28.434Z,13.95
2023-05-03T10:01:58.798Z,14.31
2023-05-03T10:04:28.309Z,14.05
2023-05-03T10:07:00.167Z,14.18
2023-05-03T10:09:33.473Z,14.11
2023-05-03T10:12:03.119Z,14.06
2023-05-03T10:14:30.822Z,13.86
2023-05-03T10:17:01.287Z,14.13
2023-05-03T10:19:32.352Z,14.27
2023-05-03T10:22:04.479Z,14.89
2023-05-03T10:24:33.426Z,15.21
2023-05-03T10:27:01.347Z,15.61
2023-05-03T10:29:53.714Z,15.40
2023-05-03T10:32:45.101Z,15.35
2023-05-03T10:35:16.467Z,15.47
2023-05-03T10:37:45.610Z,15.44
2023-05-03T10:40:16.350Z,14.30
2023-05-03T10:42:50.891Z,15.04
2023-05-03T10:45:23.546Z,15.51
2023-05-03T10:48:20.240Z,15.59
2023-05-03T10:50:48.900Z,15.12
2023-05-03T10:53:36.270Z,15.45
2023-05-03T10:56:08.216Z,15.75
2023-05-03T10:58:38.295Z,15.26
2023-05-03T11:01:06.724Z,15.39
2023-05-03T11:03:45.647Z,15.12
2023-05-03T11:06:28.505Z,15.77
2023-05-03T11:08:56.562Z,16.08
2023-05-03T11:11:25.488Z,15.22
2023-05-03T11:13:53.611Z,15.41
2023-05-03T11:16:21.412Z,15.15
2023-05-03T11:18:49.494Z,15.14
2023-05-03T11:21:17.552Z,15.55
2023-05-03T11:23:45.857Z,14.85
2023-05-03T11:26:15.207Z,14.23
2023-05-03T11:28:44.811Z,14.39
2023-05-03T11:31:13.340Z,14.19
2023-05-03T11:33:42.370Z,14.44
2023-05-03T11:36:10.114Z,14.55
2023-05-03T11:38:39.651Z,14.86
2023-05-03T11:41:15.480Z,15.34
2023-05-03T11:43:45.371Z,15.77
2023-05-03T11:46:14.535Z,16.26
2023-05-03T11:48:44.623Z,16.06
2023-05-03T11:51:12.548Z,15.98
2023-05-03T11:53:40.935Z,15.52
2023-05-03T11:56:09.904Z,15.20
2023-05-03T11:58:52.409Z,15.55
2023-05-03T12:01:22.292Z,15.19
2023-05-03T12:03:54.417Z,15.10
2023-05-03T12:06:22.717Z,15.01
2023-05-03T12:08:51.800Z,15.43
2023-05-03T12:11:21.530Z,15.70
2023-05-03T12:13:59.542Z,16.00
2023-05-03T12:16:27.868Z,16.16
2023-05-03T12:18:58.763Z,16.52
2023-05-03T12:21:54.827Z,16.71
2023-05-03T12:24:33.449Z,16.92
2023-05-03T12:27:02.728Z,17.03
2023-05-03T12:29:35.384Z,17.08
2023-05-03T12:32:04.588Z,16.94
2023-05-03T12:34:36.297Z,17.14
2023-05-03T12:37:06.454Z,16.76
2023-05-03T12:39:36.418Z,16.67
2023-05-03T12:42:08.797Z,16.98
2023-05-03T12:44:42.149Z,17.31
2023-05-03T12:47:10.923Z,17.46
2023-05-03T12:49:39.920Z,17.46
2023-05-03T12:54:41.812Z,17.72
2023-05-03T12:57:15.534Z,17.63
2023-05-03T12:59:52.249Z,17.92
2023-05-03T13:03:19.855Z,18.09
2023-05-03T13:05:12.619Z,18.11
2023-05-03T13:07:55.547Z,18.24
2023-05-03T13:10:24.580Z,17.94
2023-05-03T13:12:53.939Z,17.77
2023-05-03T13:15:25.189Z,17.62
2023-05-03T13:17:52.853Z,17.44
2023-05-03T13:20:21.447Z,17.43
2023-05-03T13:22:49.254Z,17.33
2023-05-03T13:25:17.006Z,17.12
2023-05-03T13:27:46.830Z,17.28
2023-05-03T13:30:15.449Z,17.08
2023-05-03T13:32:44.459Z,17.18
2023-05-03T13:35:12.361Z,17.46
2023-05-03T13:37:40.068Z,17.80
2023-05-03T13:40:09.938Z,17.92
2023-05-03T13:42:37.657Z,18.14
2023-05-03T13:45:06.765Z,18.29
2023-05-03T13:48:05.224Z,18.24
2023-05-03T13:50:23.580Z,17.92
2023-05-03T13:52:51.222Z,17.47
2023-05-03T13:55:18.953Z,17.73
2023-05-03T13:57:46.586Z,17.57
2023-05-03T14:00:16.257Z,17.62
2023-05-03T14:02:43.983Z,17.46
2023-05-03T14:05:11.829Z,17.74
2023-05-03T14:07:41.015Z,17.69
2023-05-03T14:10:09.962Z,17.78
2023-05-03T14:12:38.058Z,17.56
2023-05-03T14:15:06.769Z,17.04
2023-05-03T14:17:34.853Z,17.31
2023-05-03T14:20:02.771Z,17.70
2023-05-03T14:22:30.511Z,17.92
2023-05-03T14:24:59.420Z,18.17
2023-05-03T14:27:28.016Z,18.31
2023-05-03T14:29:56.481Z,18.33
2023-05-03T14:32:25.339Z,17.92
2023-05-03T14:34:52.973Z,18.19
2023-05-03T14:37:21.365Z,18.07
2023-05-03T14:39:48.995Z,17.57
2023-05-03T14:42:17.954Z,17.63
2023-05-03T14:44:45.704Z,17.67
2023-05-03T14:47:13.332Z,17.40
2023-05-03T14:49:41.419Z,17.61
2023-05-03T14:52:09.360Z,17.84
2023-05-03T14:54:38.043Z,18.06
2023-05-03T14:57:05.836Z,18.07
2023-05-03T14:59:34.950Z,17.84
2023-05-03T15:02:02.768Z,17.63
2023-05-03T15:04:30.726Z,17.58
2023-05-03T15:07:01.322Z,17.69
2023-05-03T15:09:28.970Z,17.76
2023-05-03T15:11:56.643Z,17.90
2023-05-03T15:14:24.616Z,17.95
2023-05-03T15:16:53.849Z,17.89
2023-05-03T15:19:21.957Z,17.87
2023-05-03T15:21:51.414Z,17.88
2023-05-03T15:24:19.517Z,17.80
2023-05-03T15:26:47.363Z,17.73
2023-05-03T15:29:15.053Z,17.82
2023-05-03T15:31:43.702Z,17.64
2023-05-03T15:34:12.821Z,17.74
2023-05-03T15:36:40.960Z,17.71
2023-05-03T15:39:09.290Z,17.46
2023-05-03T15:41:37.117Z,17.37
2023-05-03T15:44:07.130Z,17.30
2023-05-03T15:46:36.107Z,17.31
2023-05-03T15:49:04.357Z,17.25
2023-05-03T15:51:33.470Z,17.18
2023-05-03T15:54:01.533Z,17.20
2023-05-03T15:56:29.282Z,17.19
2023-05-03T15:58:56.956Z,17.16
2023-05-03T16:01:25.082Z,17.06
2023-05-03T16:03:52.847Z,17.05
2023-05-03T16:06:20.529Z,17.03
2023-05-03T16:08:49.480Z,17.08
2023-05-03T16:11:17.267Z,17.01
2023-05-03T16:13:44.867Z,17.01
2023-05-03T16:16:12.494Z,17.06
2023-05-03T16:18:40.278Z,17.08
2023-05-03T16:21:07.964Z,17.01
2023-05-03T16:23:35.572Z,17.01
2023-05-03T16:26:14.426Z,17.00
2023-05-03T16:28:42.220Z,16.95
2023-05-03T16:31:09.893Z,16.89
2023-05-03T16:33:37.559Z,16.96
2023-05-03T16:36:05.520Z,-146.54
2023-05-03T16:38:33.299Z,-146.54
2023-05-03T16:41:01.719Z,-146.54
2023-05-03T16:43:30.878Z,-146.54
2023-05-03T16:46:00.212Z,-146.54
2023-05-03T16:48:27.932Z,-146.54
2023-05-03T16:50:55.806Z,-146.54
2023-05-03T16:53:24.600Z,-146.54
2023-05-03T16:55:52.261Z,-146.54
2023-05-03T16:58:20.102Z,-146.54
2023-05-03T17:00:49.039Z,-146.54
2023-05-03T17:03:17.353Z,-146.54
2023-05-03T17:05:45.111Z,-146.54
2023-05-03T17:08:13.549Z,-146.54
2023-05-03T17:10:41.621Z,-146.54
2023-05-03T17:13:09.461Z,-146.54
2023-05-03T17:15:37.750Z,-146.54
2023-05-03T17:18:06.916Z,-146.54
2023-05-03T17:20:35.518Z,-146.54
2023-05-03T17:23:03.581Z,-146.54
2023-05-03T17:25:31.242Z,-146.54
2023-05-03T17:27:58.884Z,-146.54
2023-05-03T17:30:26.906Z,-146.54
2023-05-03T17:32:54.747Z,-146.54
2023-05-03T17:35:24.124Z,-146.54
2023-05-03T17:37:51.819Z,-146.54
2023-05-03T17:40:19.723Z,-146.54
2023-05-03T17:42:47.891Z,-146.54
2023-05-03T17:45:16.267Z,-146.54
2023-05-03T17:47:43.911Z,-146.54
2023-05-03T17:50:13.493Z,-146.54
2023-05-03T17:52:42.935Z,-146.54
2023-05-03T17:55:10.830Z,-146.54
2023-05-03T17:57:40.017Z,-146.54
2023-05-03T18:00:11.116Z,-146.54
2023-05-03T18:02:38.781Z,-146.54
2023-05-03T18:05:06.825Z,-146.54
2023-05-03T18:07:34.516Z,-146.54
2023-05-03T18:10:04.150Z,-146.54
2023-05-03T18:12:32.086Z,-146.54
2023-05-03T18:15:00.396Z,-146.54
2023-05-03T18:17:28.512Z,-146.54
2023-05-03T18:19:56.942Z,-146.54
2023-05-03T18:22:27.526Z,-146.54
2023-05-03T18:24:55.574Z,-146.54
2023-05-03T18:27:24.595Z,-146.54
2023-05-03T18:29:52.219Z,-146.54
2023-05-03T18:32:19.851Z,-146.54
2023-05-03T18:34:47.460Z,-146.54
2023-05-03T18:37:15.121Z,-146.54
2023-05-03T18:39:42.765Z,-146.54
2023-05-03T18:42:10.516Z,-146.54
2023-05-03T18:44:39.737Z,-146.54
2023-05-03T18:47:10.219Z,-146.54
2023-05-03T18:49:37.919Z,-146.54
2023-05-03T18:52:06.090Z,-146.54
2023-05-03T18:54:33.705Z,-146.54
2023-05-03T18:57:01.906Z,-146.54
2023-05-03T18:59:29.705Z,-146.54
2023-05-03T19:01:58.789Z,-146.54
2023-05-03T19:04:26.617Z,-146.54
2023-05-03T19:06:54.246Z,-146.54
2023-05-03T19:09:21.862Z,-146.54
2023-05-03T19:11:50.268Z,-146.54
2023-05-03T19:14:17.901Z,-146.54
2023-05-03T19:16:45.618Z,-146.54
2023-05-03T19:19:14.607Z,-146.54
2023-05-03T19:21:43.711Z,-146.54
2023-05-03T19:24:12.946Z,-146.54
2023-05-03T19:26:40.583Z,-146.54
2023-05-03T19:29:08.982Z,-146.54
2023-05-03T19:31:36.778Z,-146.54
2023-05-03T19:34:04.575Z,-146.54
2023-05-03T19:36:33.631Z,-146.54
2023-05-03T19:39:03.427Z,-146.54
2023-05-03T19:41:31.075Z,-146.54
2023-05-03T19:43:58.740Z,-146.54
2023-05-03T19:46:27.602Z,-146.54
2023-05-03T19:48:55.301Z,-146.54
2023-05-03T19:51:23.010Z,-146.54
2023-05-03T19:53:51.993Z,-146.54
2023-05-03T19:56:21.613Z,-146.54
2023-05-03T19:58:50.611Z,-146.54
2023-05-03T20:01:18.461Z,-146.54
2023-05-03T20:03:46.715Z,-146.54
2023-05-03T20:06:14.863Z,-146.54
2023-05-03T20:08:42.456Z,-146.54
2023-05-03T20:11:11.373Z,-146.54
2023-05-03T20:13:39.004Z,-146.54
2023-05-03T20:16:08.134Z,-146.54
2023-05-03T20:18:35.961Z,-146.54
2023-05-03T20:21:03.757Z,-146.54
2023-05-03T20:23:32.162Z,-146.54
2023-05-03T20:26:01.360Z,-146.54
2023-05-03T20:28:31.930Z,-146.54
2023-05-03T20:30:59.519Z,-146.54
2023-05-03T20:33:27.143Z,-146.54
2023-05-03T20:35:54.798Z,-146.54
2023-05-03T20:38:22.432Z,-146.54
2023-05-03T20:40:50.014Z,-146.54
2023-05-03T20:43:18.506Z,-146.54
2023-05-03T20:45:47.630Z,-146.54
2023-05-03T20:48:16.012Z,-146.54
2023-05-03T20:50:44.304Z,-146.54
2023-05-03T20:53:12.692Z,-146.54
2023-05-03T20:55:40.286Z,-146.54
2023-05-03T20:58:08.015Z,-146.54
2023-05-03T21:00:35.884Z,-146.54
2023-05-03T21:03:05.550Z,-146.54
2023-05-03T21:05:33.406Z,-146.54
2023-05-03T21:08:01.014Z,-146.54
2023-05-03T21:10:28.587Z,-146.54
2023-05-03T21:12:56.296Z,-146.54
2023-05-03T21:15:23.946Z,-146.54
2023-05-03T21:17:52.002Z,-146.54
2023-05-03T21:20:21.139Z,-146.54
2023-05-03T21:22:48.745Z,-146.54
2023-05-03T21:25:16.364Z,-146.54
2023-05-03T21:27:43.950Z,-146.54
2023-05-03T21:30:13.637Z,-146.54
2023-05-03T21:32:41.282Z,-146.54
2023-05-03T21:35:10.193Z,-146.54
2023-05-03T21:37:39.178Z,-146.54
2023-05-03T21:40:08.587Z,-146.54
2023-05-03T21:42:36.497Z,-146.54
2023-05-03T21:45:04.239Z,-146.54
2023-05-03T21:47:32.146Z,-146.54
2023-05-03T21:50:00.798Z,-146.54
2023-05-03T21:52:28.457Z,-146.54
2023-05-03T21:54:58.836Z,-146.54
2023-05-03T21:57:26.580Z,-146.54
2023-05-03T21:59:54.375Z,-146.54
2023-05-03T22:02:22.244Z,-146.54
2023-05-03T22:04:50.106Z,-146.54
2023-05-03T22:07:17.985Z,-146.54
2023-05-03T22:09:46.935Z,-146.54
2023-05-03T22:14:47.453Z,-146.54
2023-05-03T22:17:15.144Z,-146.54
2023-05-03T22:19:42.756Z,-146.54
2023-05-03T22:22:10.481Z,-146.54
2023-05-03T22:24:38.159Z,-146.54
2023-05-03T22:27:05.798Z,-146.54
2023-05-03T22:29:34.746Z,-146.54
2023-05-03T22:32:02.855Z,-146.54
2023-05-03T22:34:30.881Z,-146.54
2023-05-03T22:36:58.500Z,-146.54
2023-05-03T22:39:26.760Z,-146.54
2023-05-03T22:41:54.404Z,-146.54
2023-05-03T22:44:22.011Z,-146.54
2023-05-03T22:46:51.011Z,-146.54
2023-05-03T22:49:18.781Z,-146.54
2023-05-03T22:51:46.649Z,-146.54
2023-05-03T22:54:14.212Z,-146.54
2023-05-03T22:56:41.821Z,-146.54
2023-05-03T22:59:09.502Z,-146.54
2023-05-03T23:01:37.493Z,-146.54
2023-05-03T23:04:07.274Z,-146.54
2023-05-03T23:06:34.913Z,-146.54
2023-05-03T23:09:02.562Z,-146.54
2023-05-03T23:11:30.191Z,-146.54
2023-05-03T23:13:58.000Z,-146.54
2023-05-03T23:16:25.888Z,-146.54
2023-05-03T23:18:55.684Z,-146.54
2023-05-03T23:21:25.198Z,-146.54
2023-05-03T23:23:52.962Z,-146.54
2023-05-03T23:26:20.748Z,-146.54
2023-05-03T23:28:48.964Z,-146.54
2023-05-03T23:31:16.977Z,-146.54
2023-05-03T23:33:45.083Z,-146.54
2023-05-03T23:36:12.691Z,-146.54
2023-05-03T23:38:41.760Z,-146.54
2023-05-03T23:41:09.416Z,-146.54
2023-05-03T23:43:37.203Z,-146.54
2023-05-03T23:46:04.850Z,-146.54
2023-05-03T23:48:32.789Z,-146.54
2023-05-03T23:51:00.443Z,-146.54
2023-05-03T23:53:28.065Z,-146.54
2023-05-03T23:55:57.040Z,-146.54
2023-05-03T23:58:24.663Z,-146.54
